sensor_id;sensor_type;location;lat;lon;timestamp;temperature;humidity
47845;DHT22;33605;48.822;8.796;2023-03-04T00:01:14;5.60;34.20
47845;DHT22;33605;48.822;8.796;2023-03-04T00:03:40;5.60;34.30
47845;DHT22;33605;48.822;8.796;2023-03-04T00:06:06;5.60;35.00
47845;DHT22;33605;48.822;8.796;2023-03-04T00:08:32;5.50;34.30
47845;DHT22;33605;48.822;8.796;2023-03-04T00:10:58;5.40;34.10
47845;DHT22;33605;48.822;8.796;2023-03-04T00:13:24;5.40;34.20
47845;DHT22;33605;48.822;8.796;2023-03-04T00:15:49;5.40;34.20
47845;DHT22;33605;48.822;8.796;2023-03-04T00:18:15;5.30;34.00
47845;DHT22;33605;48.822;8.796;2023-03-04T00:20:41;5.30;34.00
47845;DHT22;33605;48.822;8.796;2023-03-04T00:23:06;5.20;33.90
47845;DHT22;33605;48.822;8.796;2023-03-04T00:25:32;5.20;33.90
47845;DHT22;33605;48.822;8.796;2023-03-04T00:27:58;5.20;33.90
47845;DHT22;33605;48.822;8.796;2023-03-04T00:30:24;5.20;33.90
47845;DHT22;33605;48.822;8.796;2023-03-04T00:32:49;5.10;34.00
47845;DHT22;33605;48.822;8.796;2023-03-04T00:35:15;5.10;34.20
47845;DHT22;33605;48.822;8.796;2023-03-04T00:37:41;5.10;34.20
47845;DHT22;33605;48.822;8.796;2023-03-04T00:40:08;5.10;34.40
47845;DHT22;33605;48.822;8.796;2023-03-04T00:42:33;5.10;34.40
47845;DHT22;33605;48.822;8.796;2023-03-04T00:44:59;5.00;34.50
47845;DHT22;33605;48.822;8.796;2023-03-04T00:47:25;5.00;34.50
47845;DHT22;33605;48.822;8.796;2023-03-04T00:49:51;5.00;34.40
47845;DHT22;33605;48.822;8.796;2023-03-04T00:52:16;5.00;34.30
47845;DHT22;33605;48.822;8.796;2023-03-04T00:54:42;5.00;34.30
47845;DHT22;33605;48.822;8.796;2023-03-04T00:57:07;4.90;34.40
47845;DHT22;33605;48.822;8.796;2023-03-04T00:59:33;4.90;34.60
47845;DHT22;33605;48.822;8.796;2023-03-04T01:01:59;4.90;34.70
47845;DHT22;33605;48.822;8.796;2023-03-04T01:04:25;4.90;34.80
47845;DHT22;33605;48.822;8.796;2023-03-04T01:06:51;4.90;35.00
47845;DHT22;33605;48.822;8.796;2023-03-04T01:09:16;4.90;35.10
47845;DHT22;33605;48.822;8.796;2023-03-04T01:11:42;4.90;35.10
47845;DHT22;33605;48.822;8.796;2023-03-04T01:14:08;4.80;35.30
47845;DHT22;33605;48.822;8.796;2023-03-04T01:16:33;4.80;35.20
47845;DHT22;33605;48.822;8.796;2023-03-04T01:18:59;4.80;35.10
47845;DHT22;33605;48.822;8.796;2023-03-04T01:21:24;4.80;35.20
47845;DHT22;33605;48.822;8.796;2023-03-04T01:23:50;4.70;35.20
47845;DHT22;33605;48.822;8.796;2023-03-04T01:26:16;4.70;35.50
47845;DHT22;33605;48.822;8.796;2023-03-04T01:28:41;4.70;35.50
47845;DHT22;33605;48.822;8.796;2023-03-04T01:31:07;4.70;35.60
47845;DHT22;33605;48.822;8.796;2023-03-04T01:33:33;4.70;36.00
47845;DHT22;33605;48.822;8.796;2023-03-04T01:35:58;4.60;36.10
47845;DHT22;33605;48.822;8.796;2023-03-04T01:38:24;4.60;36.20
47845;DHT22;33605;48.822;8.796;2023-03-04T01:40:53;4.60;36.20
47845;DHT22;33605;48.822;8.796;2023-03-04T01:43:22;4.50;36.20
47845;DHT22;33605;48.822;8.796;2023-03-04T01:45:50;4.50;36.20
47845;DHT22;33605;48.822;8.796;2023-03-04T01:48:23;4.50;36.30
47845;DHT22;33605;48.822;8.796;2023-03-04T01:50:49;4.50;36.70
47845;DHT22;33605;48.822;8.796;2023-03-04T01:53:26;4.40;36.80
47845;DHT22;33605;48.822;8.796;2023-03-04T01:56:22;4.40;36.90
47845;DHT22;33605;48.822;8.796;2023-03-04T01:59:12;4.40;37.10
47845;DHT22;33605;48.822;8.796;2023-03-04T02:01:39;4.30;37.20
47845;DHT22;33605;48.822;8.796;2023-03-04T02:04:06;4.30;37.20
47845;DHT22;33605;48.822;8.796;2023-03-04T02:06:34;4.40;37.40
47845;DHT22;33605;48.822;8.796;2023-03-04T02:09:00;4.40;37.60
47845;DHT22;33605;48.822;8.796;2023-03-04T02:11:26;4.30;37.50
47845;DHT22;33605;48.822;8.796;2023-03-04T02:13:52;4.30;37.70
47845;DHT22;33605;48.822;8.796;2023-03-04T02:16:18;4.30;37.80
47845;DHT22;33605;48.822;8.796;2023-03-04T02:18:44;4.30;38.00
47845;DHT22;33605;48.822;8.796;2023-03-04T02:21:22;4.30;38.10
47845;DHT22;33605;48.822;8.796;2023-03-04T02:26:25;4.30;37.90
47845;DHT22;33605;48.822;8.796;2023-03-04T02:28:53;4.30;37.90
47845;DHT22;33605;48.822;8.796;2023-03-04T02:31:23;4.20;38.00
47845;DHT22;33605;48.822;8.796;2023-03-04T02:33:50;4.20;38.10
47845;DHT22;33605;48.822;8.796;2023-03-04T02:36:17;4.20;38.20
47845;DHT22;33605;48.822;8.796;2023-03-04T02:38:43;4.20;38.10
47845;DHT22;33605;48.822;8.796;2023-03-04T02:41:12;4.20;38.10
47845;DHT22;33605;48.822;8.796;2023-03-04T02:43:39;4.20;38.10
47845;DHT22;33605;48.822;8.796;2023-03-04T02:46:05;4.20;38.10
47845;DHT22;33605;48.822;8.796;2023-03-04T02:48:33;4.20;37.90
47845;DHT22;33605;48.822;8.796;2023-03-04T02:50:59;4.20;37.90
47845;DHT22;33605;48.822;8.796;2023-03-04T02:53:25;4.20;37.90
47845;DHT22;33605;48.822;8.796;2023-03-04T02:55:50;4.20;38.00
47845;DHT22;33605;48.822;8.796;2023-03-04T02:58:16;4.20;37.90
47845;DHT22;33605;48.822;8.796;2023-03-04T03:00:42;4.20;38.00
47845;DHT22;33605;48.822;8.796;2023-03-04T03:03:11;4.20;38.10
47845;DHT22;33605;48.822;8.796;2023-03-04T03:05:36;4.20;38.20
47845;DHT22;33605;48.822;8.796;2023-03-04T03:08:02;4.20;38.40
47845;DHT22;33605;48.822;8.796;2023-03-04T03:10:28;4.20;38.40
47845;DHT22;33605;48.822;8.796;2023-03-04T03:12:54;4.20;38.30
47845;DHT22;33605;48.822;8.796;2023-03-04T03:15:20;4.10;38.20
47845;DHT22;33605;48.822;8.796;2023-03-04T03:17:46;4.10;38.10
47845;DHT22;33605;48.822;8.796;2023-03-04T03:20:12;4.10;38.10
47845;DHT22;33605;48.822;8.796;2023-03-04T03:22:41;4.20;38.20
47845;DHT22;33605;48.822;8.796;2023-03-04T03:25:11;4.10;38.20
47845;DHT22;33605;48.822;8.796;2023-03-04T03:27:37;4.20;38.30
47845;DHT22;33605;48.822;8.796;2023-03-04T03:30:03;4.10;38.20
47845;DHT22;33605;48.822;8.796;2023-03-04T03:32:30;4.10;38.30
47845;DHT22;33605;48.822;8.796;2023-03-04T03:34:55;4.10;38.40
47845;DHT22;33605;48.822;8.796;2023-03-04T03:37:21;4.10;38.40
47845;DHT22;33605;48.822;8.796;2023-03-04T03:39:47;4.10;38.40
47845;DHT22;33605;48.822;8.796;2023-03-04T03:42:12;4.10;38.40
47845;DHT22;33605;48.822;8.796;2023-03-04T03:44:38;4.10;38.50
47845;DHT22;33605;48.822;8.796;2023-03-04T03:47:04;4.10;38.50
47845;DHT22;33605;48.822;8.796;2023-03-04T03:49:29;4.10;38.40
47845;DHT22;33605;48.822;8.796;2023-03-04T03:51:55;4.00;38.20
47845;DHT22;33605;48.822;8.796;2023-03-04T03:54:21;4.00;38.20
47845;DHT22;33605;48.822;8.796;2023-03-04T03:56:46;4.00;38.10
47845;DHT22;33605;48.822;8.796;2023-03-04T03:59:12;4.00;38.10
47845;DHT22;33605;48.822;8.796;2023-03-04T04:01:37;4.00;38.00
47845;DHT22;33605;48.822;8.796;2023-03-04T04:04:03;4.00;38.00
47845;DHT22;33605;48.822;8.796;2023-03-04T04:06:29;4.00;38.00
47845;DHT22;33605;48.822;8.796;2023-03-04T04:08:54;4.00;38.00
47845;DHT22;33605;48.822;8.796;2023-03-04T04:11:20;3.90;38.00
47845;DHT22;33605;48.822;8.796;2023-03-04T04:13:46;3.90;38.20
47845;DHT22;33605;48.822;8.796;2023-03-04T04:16:12;3.90;38.10
47845;DHT22;33605;48.822;8.796;2023-03-04T04:18:37;3.90;38.20
47845;DHT22;33605;48.822;8.796;2023-03-04T04:21:03;3.90;38.30
47845;DHT22;33605;48.822;8.796;2023-03-04T04:23:30;3.80;38.10
47845;DHT22;33605;48.822;8.796;2023-03-04T04:25:58;3.80;38.10
47845;DHT22;33605;48.822;8.796;2023-03-04T04:28:24;3.80;38.20
47845;DHT22;33605;48.822;8.796;2023-03-04T04:30:50;3.80;38.20
47845;DHT22;33605;48.822;8.796;2023-03-04T04:33:16;3.70;37.90
47845;DHT22;33605;48.822;8.796;2023-03-04T04:35:41;3.70;37.80
47845;DHT22;33605;48.822;8.796;2023-03-04T04:38:08;3.70;37.80
47845;DHT22;33605;48.822;8.796;2023-03-04T04:40:34;3.70;37.80
47845;DHT22;33605;48.822;8.796;2023-03-04T04:43:01;3.60;37.70
47845;DHT22;33605;48.822;8.796;2023-03-04T04:45:27;3.60;37.80
47845;DHT22;33605;48.822;8.796;2023-03-04T04:47:53;3.60;37.90
47845;DHT22;33605;48.822;8.796;2023-03-04T04:50:24;3.60;37.90
47845;DHT22;33605;48.822;8.796;2023-03-04T04:52:50;3.60;38.00
47845;DHT22;33605;48.822;8.796;2023-03-04T04:55:16;3.50;37.80
47845;DHT22;33605;48.822;8.796;2023-03-04T04:57:42;3.50;37.80
47845;DHT22;33605;48.822;8.796;2023-03-04T05:00:09;3.50;37.90
47845;DHT22;33605;48.822;8.796;2023-03-04T05:02:36;3.50;38.00
47845;DHT22;33605;48.822;8.796;2023-03-04T05:05:05;3.50;38.00
47845;DHT22;33605;48.822;8.796;2023-03-04T05:07:31;3.50;38.10
47845;DHT22;33605;48.822;8.796;2023-03-04T05:10:00;3.40;38.10
47845;DHT22;33605;48.822;8.796;2023-03-04T05:12:26;3.40;38.10
47845;DHT22;33605;48.822;8.796;2023-03-04T05:14:52;3.40;38.20
47845;DHT22;33605;48.822;8.796;2023-03-04T05:17:18;3.40;38.20
47845;DHT22;33605;48.822;8.796;2023-03-04T05:19:43;3.40;38.20
47845;DHT22;33605;48.822;8.796;2023-03-04T05:22:09;3.30;38.20
47845;DHT22;33605;48.822;8.796;2023-03-04T05:24:35;3.40;38.40
47845;DHT22;33605;48.822;8.796;2023-03-04T05:27:01;3.30;38.30
47845;DHT22;33605;48.822;8.796;2023-03-04T05:29:27;3.30;38.40
47845;DHT22;33605;48.822;8.796;2023-03-04T05:31:55;3.30;38.30
47845;DHT22;33605;48.822;8.796;2023-03-04T05:34:21;3.30;38.20
47845;DHT22;33605;48.822;8.796;2023-03-04T05:36:46;3.30;38.20
47845;DHT22;33605;48.822;8.796;2023-03-04T05:39:12;3.30;38.20
47845;DHT22;33605;48.822;8.796;2023-03-04T05:41:37;3.30;38.10
47845;DHT22;33605;48.822;8.796;2023-03-04T05:44:03;3.20;38.00
47845;DHT22;33605;48.822;8.796;2023-03-04T05:46:29;3.20;38.10
47845;DHT22;33605;48.822;8.796;2023-03-04T05:48:54;3.20;38.10
47845;DHT22;33605;48.822;8.796;2023-03-04T05:51:21;3.20;38.70
47845;DHT22;33605;48.822;8.796;2023-03-04T05:53:47;3.10;37.90
47845;DHT22;33605;48.822;8.796;2023-03-04T05:56:15;3.10;37.80
47845;DHT22;33605;48.822;8.796;2023-03-04T05:58:42;3.10;37.70
47845;DHT22;33605;48.822;8.796;2023-03-04T06:01:08;3.10;37.50
47845;DHT22;33605;48.822;8.796;2023-03-04T06:03:34;3.10;37.40
47845;DHT22;33605;48.822;8.796;2023-03-04T06:05:59;3.10;37.50
47845;DHT22;33605;48.822;8.796;2023-03-04T06:08:25;3.00;37.70
47845;DHT22;33605;48.822;8.796;2023-03-04T06:10:53;3.00;38.00
47845;DHT22;33605;48.822;8.796;2023-03-04T06:13:19;3.00;38.20
47845;DHT22;33605;48.822;8.796;2023-03-04T06:15:44;3.00;38.20
47845;DHT22;33605;48.822;8.796;2023-03-04T06:18:10;3.00;38.20
47845;DHT22;33605;48.822;8.796;2023-03-04T06:20:36;2.90;38.20
47845;DHT22;33605;48.822;8.796;2023-03-04T06:23:03;2.90;38.30
47845;DHT22;33605;48.822;8.796;2023-03-04T06:25:29;2.90;38.50
47845;DHT22;33605;48.822;8.796;2023-03-04T06:27:54;2.90;38.60
47845;DHT22;33605;48.822;8.796;2023-03-04T06:30:20;3.00;38.80
47845;DHT22;33605;48.822;8.796;2023-03-04T06:32:46;3.00;39.00
47845;DHT22;33605;48.822;8.796;2023-03-04T06:35:13;3.00;39.30
47845;DHT22;33605;48.822;8.796;2023-03-04T06:37:39;3.00;39.50
47845;DHT22;33605;48.822;8.796;2023-03-04T06:40:06;3.00;39.70
47845;DHT22;33605;48.822;8.796;2023-03-04T06:42:35;3.10;40.00
47845;DHT22;33605;48.822;8.796;2023-03-04T06:45:01;3.10;40.30
47845;DHT22;33605;48.822;8.796;2023-03-04T06:47:27;3.20;40.60
47845;DHT22;33605;48.822;8.796;2023-03-04T06:49:52;3.20;40.90
47845;DHT22;33605;48.822;8.796;2023-03-04T06:52:19;3.30;41.30
47845;DHT22;33605;48.822;8.796;2023-03-04T06:54:45;3.30;41.40
47845;DHT22;33605;48.822;8.796;2023-03-04T06:57:10;3.40;41.80
47845;DHT22;33605;48.822;8.796;2023-03-04T06:59:38;3.50;42.50
47845;DHT22;33605;48.822;8.796;2023-03-04T07:02:03;3.50;42.10
47845;DHT22;33605;48.822;8.796;2023-03-04T07:04:29;3.70;42.50
47845;DHT22;33605;48.822;8.796;2023-03-04T07:06:55;3.70;42.50
47845;DHT22;33605;48.822;8.796;2023-03-04T07:09:20;3.80;42.50
47845;DHT22;33605;48.822;8.796;2023-03-04T07:11:46;3.80;42.40
47845;DHT22;33605;48.822;8.796;2023-03-04T07:14:12;3.90;42.40
47845;DHT22;33605;48.822;8.796;2023-03-04T07:16:38;3.90;42.50
47845;DHT22;33605;48.822;8.796;2023-03-04T07:19:04;4.00;42.40
47845;DHT22;33605;48.822;8.796;2023-03-04T07:21:30;4.00;42.30
47845;DHT22;33605;48.822;8.796;2023-03-04T07:23:55;4.10;42.30
47845;DHT22;33605;48.822;8.796;2023-03-04T07:26:21;4.20;42.30
47845;DHT22;33605;48.822;8.796;2023-03-04T07:28:47;4.20;42.30
47845;DHT22;33605;48.822;8.796;2023-03-04T07:31:22;4.30;42.30
47845;DHT22;33605;48.822;8.796;2023-03-04T07:33:49;4.40;42.40
47845;DHT22;33605;48.822;8.796;2023-03-04T07:36:15;4.40;42.30
47845;DHT22;33605;48.822;8.796;2023-03-04T07:38:48;4.50;42.30
47845;DHT22;33605;48.822;8.796;2023-03-04T07:41:14;4.50;42.30
47845;DHT22;33605;48.822;8.796;2023-03-04T07:43:40;4.50;42.20
47845;DHT22;33605;48.822;8.796;2023-03-04T07:46:06;4.50;42.20
47845;DHT22;33605;48.822;8.796;2023-03-04T07:48:32;4.50;42.20
47845;DHT22;33605;48.822;8.796;2023-03-04T07:51:09;4.60;42.50
47845;DHT22;33605;48.822;8.796;2023-03-04T07:53:36;4.60;42.50
47845;DHT22;33605;48.822;8.796;2023-03-04T07:56:04;4.60;42.40
47845;DHT22;33605;48.822;8.796;2023-03-04T07:58:30;4.70;42.40
47845;DHT22;33605;48.822;8.796;2023-03-04T08:00:56;4.70;42.30
47845;DHT22;33605;48.822;8.796;2023-03-04T08:03:22;4.80;42.40
47845;DHT22;33605;48.822;8.796;2023-03-04T08:05:48;4.80;42.30
47845;DHT22;33605;48.822;8.796;2023-03-04T08:08:14;4.90;42.40
47845;DHT22;33605;48.822;8.796;2023-03-04T08:10:40;4.90;42.40
47845;DHT22;33605;48.822;8.796;2023-03-04T08:13:07;4.90;42.30
47845;DHT22;33605;48.822;8.796;2023-03-04T08:15:33;5.00;42.50
47845;DHT22;33605;48.822;8.796;2023-03-04T08:18:01;5.00;42.40
47845;DHT22;33605;48.822;8.796;2023-03-04T08:20:27;5.10;42.50
47845;DHT22;33605;48.822;8.796;2023-03-04T08:22:53;5.10;42.50
47845;DHT22;33605;48.822;8.796;2023-03-04T08:25:18;5.10;42.40
47845;DHT22;33605;48.822;8.796;2023-03-04T08:27:44;5.10;42.40
47845;DHT22;33605;48.822;8.796;2023-03-04T08:30:10;5.20;42.60
47845;DHT22;33605;48.822;8.796;2023-03-04T08:32:36;5.20;42.50
47845;DHT22;33605;48.822;8.796;2023-03-04T08:35:02;5.20;42.50
47845;DHT22;33605;48.822;8.796;2023-03-04T08:37:30;5.30;42.50
47845;DHT22;33605;48.822;8.796;2023-03-04T08:39:56;5.30;42.50
47845;DHT22;33605;48.822;8.796;2023-03-04T08:42:22;5.30;42.40
47845;DHT22;33605;48.822;8.796;2023-03-04T08:44:48;5.40;42.60
47845;DHT22;33605;48.822;8.796;2023-03-04T08:47:14;5.40;42.50
47845;DHT22;33605;48.822;8.796;2023-03-04T08:49:39;5.50;42.50
47845;DHT22;33605;48.822;8.796;2023-03-04T08:52:05;5.50;42.50
47845;DHT22;33605;48.822;8.796;2023-03-04T08:54:31;5.60;42.60
47845;DHT22;33605;48.822;8.796;2023-03-04T08:56:56;5.60;42.50
47845;DHT22;33605;48.822;8.796;2023-03-04T08:59:23;5.60;42.40
47845;DHT22;33605;48.822;8.796;2023-03-04T09:01:48;5.70;42.30
47845;DHT22;33605;48.822;8.796;2023-03-04T09:04:14;5.70;42.20
47845;DHT22;33605;48.822;8.796;2023-03-04T09:06:40;5.80;42.10
47845;DHT22;33605;48.822;8.796;2023-03-04T09:09:05;5.80;42.00
47845;DHT22;33605;48.822;8.796;2023-03-04T09:11:31;5.90;42.00
47845;DHT22;33605;48.822;8.796;2023-03-04T09:13:57;5.90;41.80
47845;DHT22;33605;48.822;8.796;2023-03-04T09:16:22;6.00;41.80
47845;DHT22;33605;48.822;8.796;2023-03-04T09:18:48;6.00;41.60
47845;DHT22;33605;48.822;8.796;2023-03-04T09:21:14;6.00;42.10
47845;DHT22;33605;48.822;8.796;2023-03-04T09:23:39;6.10;41.40
47845;DHT22;33605;48.822;8.796;2023-03-04T09:26:22;6.10;41.40
47845;DHT22;33605;48.822;8.796;2023-03-04T09:28:50;6.10;41.20
47845;DHT22;33605;48.822;8.796;2023-03-04T09:31:16;6.10;40.90
47845;DHT22;33605;48.822;8.796;2023-03-04T09:33:42;6.10;40.70
47845;DHT22;33605;48.822;8.796;2023-03-04T09:36:09;6.20;40.70
47845;DHT22;33605;48.822;8.796;2023-03-04T09:38:35;6.20;40.50
47845;DHT22;33605;48.822;8.796;2023-03-04T09:41:06;6.20;40.50
47845;DHT22;33605;48.822;8.796;2023-03-04T09:43:33;6.20;40.40
47845;DHT22;33605;48.822;8.796;2023-03-04T09:46:02;6.20;40.20
47845;DHT22;33605;48.822;8.796;2023-03-04T09:48:43;6.30;40.20
47845;DHT22;33605;48.822;8.796;2023-03-04T09:56:50;6.30;39.70
47845;DHT22;33605;48.822;8.796;2023-03-04T09:59:30;6.30;39.50
47845;DHT22;33605;48.822;8.796;2023-03-04T10:02:06;6.40;39.50
47845;DHT22;33605;48.822;8.796;2023-03-04T10:04:39;6.40;39.40
47845;DHT22;33605;48.822;8.796;2023-03-04T10:07:14;6.40;39.50
47845;DHT22;33605;48.822;8.796;2023-03-04T10:09:48;6.40;39.90
47845;DHT22;33605;48.822;8.796;2023-03-04T10:12:19;6.50;39.40
47845;DHT22;33605;48.822;8.796;2023-03-04T10:15:04;6.50;39.10
47845;DHT22;33605;48.822;8.796;2023-03-04T10:17:36;6.50;39.00
47845;DHT22;33605;48.822;8.796;2023-03-04T10:20:04;6.50;38.90
47845;DHT22;33605;48.822;8.796;2023-03-04T10:22:55;6.50;38.80
47845;DHT22;33605;48.822;8.796;2023-03-04T10:25:26;6.50;38.60
47845;DHT22;33605;48.822;8.796;2023-03-04T10:27:58;6.50;38.50
47845;DHT22;33605;48.822;8.796;2023-03-04T10:33:36;6.60;39.20
47845;DHT22;33605;48.822;8.796;2023-03-04T10:36:03;6.70;38.60
47845;DHT22;33605;48.822;8.796;2023-03-04T10:38:38;6.70;38.50
47845;DHT22;33605;48.822;8.796;2023-03-04T10:41:16;6.70;38.30
47845;DHT22;33605;48.822;8.796;2023-03-04T10:43:49;6.70;38.20
47845;DHT22;33605;48.822;8.796;2023-03-04T10:46:15;6.70;38.10
47845;DHT22;33605;48.822;8.796;2023-03-04T10:48:42;6.80;38.10
47845;DHT22;33605;48.822;8.796;2023-03-04T10:51:18;6.80;38.00
47845;DHT22;33605;48.822;8.796;2023-03-04T10:53:46;6.80;37.80
47845;DHT22;33605;48.822;8.796;2023-03-04T10:56:41;6.90;37.80
47845;DHT22;33605;48.822;8.796;2023-03-04T10:59:45;6.90;37.80
47845;DHT22;33605;48.822;8.796;2023-03-04T11:02:35;7.00;38.10
47845;DHT22;33605;48.822;8.796;2023-03-04T11:07:52;7.10;38.20
47845;DHT22;33605;48.822;8.796;2023-03-04T11:10:21;7.20;38.00
47845;DHT22;33605;48.822;8.796;2023-03-04T11:20:53;7.50;36.70
47845;DHT22;33605;48.822;8.796;2023-03-04T11:23:44;7.60;36.60
47845;DHT22;33605;48.822;8.796;2023-03-04T11:26:48;7.60;36.30
47845;DHT22;33605;48.822;8.796;2023-03-04T11:29:29;7.70;36.20
47845;DHT22;33605;48.822;8.796;2023-03-04T11:39:53;7.80;35.70
47845;DHT22;33605;48.822;8.796;2023-03-04T11:44:57;7.80;35.40
47845;DHT22;33605;48.822;8.796;2023-03-04T11:48:24;7.80;35.30
47845;DHT22;33605;48.822;8.796;2023-03-04T11:51:11;7.80;35.00
47845;DHT22;33605;48.822;8.796;2023-03-04T11:56:44;7.70;34.90
47845;DHT22;33605;48.822;8.796;2023-03-04T12:01:55;7.70;34.70
47845;DHT22;33605;48.822;8.796;2023-03-04T12:04:50;7.70;34.60
47845;DHT22;33605;48.822;8.796;2023-03-04T12:10:13;7.70;34.60
47845;DHT22;33605;48.822;8.796;2023-03-04T12:17:53;7.70;34.60
47845;DHT22;33605;48.822;8.796;2023-03-04T12:28:35;7.70;35.30
47845;DHT22;33605;48.822;8.796;2023-03-04T12:31:39;7.60;34.60
47845;DHT22;33605;48.822;8.796;2023-03-04T12:34:26;7.60;34.70
47845;DHT22;33605;48.822;8.796;2023-03-04T12:39:45;7.50;34.70
47845;DHT22;33605;48.822;8.796;2023-03-04T12:50:59;7.50;35.00
47845;DHT22;33605;48.822;8.796;2023-03-04T12:53:38;7.50;34.90
47845;DHT22;33605;48.822;8.796;2023-03-04T12:56:08;7.40;34.70
47845;DHT22;33605;48.822;8.796;2023-03-04T12:58:42;7.50;34.80
47845;DHT22;33605;48.822;8.796;2023-03-04T13:01:30;7.50;34.80
47845;DHT22;33605;48.822;8.796;2023-03-04T13:04:03;7.40;34.70
47845;DHT22;33605;48.822;8.796;2023-03-04T13:06:50;7.40;34.70
47845;DHT22;33605;48.822;8.796;2023-03-04T13:09:30;7.40;34.70
47845;DHT22;33605;48.822;8.796;2023-03-04T13:12:18;7.40;34.70
47845;DHT22;33605;48.822;8.796;2023-03-04T13:17:37;7.30;34.70
47845;DHT22;33605;48.822;8.796;2023-03-04T13:41:20;7.30;34.90
47845;DHT22;33605;48.822;8.796;2023-03-04T13:43:49;7.30;35.00
47845;DHT22;33605;48.822;8.796;2023-03-04T13:51:32;7.40;35.00
47845;DHT22;33605;48.822;8.796;2023-03-04T13:56:38;7.40;35.10
47845;DHT22;33605;48.822;8.796;2023-03-04T14:04:11;7.50;35.00
47845;DHT22;33605;48.822;8.796;2023-03-04T14:06:42;7.50;35.60
47845;DHT22;33605;48.822;8.796;2023-03-04T14:09:13;7.50;34.90
47845;DHT22;33605;48.822;8.796;2023-03-04T14:11:40;7.50;34.90
47845;DHT22;33605;48.822;8.796;2023-03-04T14:14:17;7.50;34.90
47845;DHT22;33605;48.822;8.796;2023-03-04T14:17:03;7.50;35.00
47845;DHT22;33605;48.822;8.796;2023-03-04T14:19:38;7.40;34.90
47845;DHT22;33605;48.822;8.796;2023-03-04T14:22:29;7.40;34.90
47845;DHT22;33605;48.822;8.796;2023-03-04T14:25:17;7.50;35.00
47845;DHT22;33605;48.822;8.796;2023-03-04T14:27:45;7.50;35.10
47845;DHT22;33605;48.822;8.796;2023-03-04T14:30:20;7.50;35.10
47845;DHT22;33605;48.822;8.796;2023-03-04T14:32:47;7.50;35.00
47845;DHT22;33605;48.822;8.796;2023-03-04T14:35:21;7.50;35.00
47845;DHT22;33605;48.822;8.796;2023-03-04T14:38:00;7.60;35.20
47845;DHT22;33605;48.822;8.796;2023-03-04T14:40:38;7.50;35.10
47845;DHT22;33605;48.822;8.796;2023-03-04T14:43:15;7.60;35.10
47845;DHT22;33605;48.822;8.796;2023-03-04T14:45:43;7.60;35.10
47845;DHT22;33605;48.822;8.796;2023-03-04T14:51:28;7.60;35.10
47845;DHT22;33605;48.822;8.796;2023-03-04T14:53:55;7.60;35.00
47845;DHT22;33605;48.822;8.796;2023-03-04T14:56:28;7.60;34.90
47845;DHT22;33605;48.822;8.796;2023-03-04T14:58:56;7.60;34.80
47845;DHT22;33605;48.822;8.796;2023-03-04T15:01:32;7.60;34.80
47845;DHT22;33605;48.822;8.796;2023-03-04T15:04:04;7.60;34.80
47845;DHT22;33605;48.822;8.796;2023-03-04T15:06:34;7.60;34.90
47845;DHT22;33605;48.822;8.796;2023-03-04T15:09:06;7.60;34.80
47845;DHT22;33605;48.822;8.796;2023-03-04T15:11:49;7.50;34.80
47845;DHT22;33605;48.822;8.796;2023-03-04T15:14:44;7.50;34.90
47845;DHT22;33605;48.822;8.796;2023-03-04T15:20:23;7.40;35.00
47845;DHT22;33605;48.822;8.796;2023-03-04T15:25:13;7.30;35.20
47845;DHT22;33605;48.822;8.796;2023-03-04T15:27:46;7.30;35.30
47845;DHT22;33605;48.822;8.796;2023-03-04T15:30:22;7.30;35.80
47845;DHT22;33605;48.822;8.796;2023-03-04T15:32:49;7.20;36.20
47845;DHT22;33605;48.822;8.796;2023-03-04T15:35:16;7.30;36.20
47845;DHT22;33605;48.822;8.796;2023-03-04T15:37:43;7.40;36.30
47845;DHT22;33605;48.822;8.796;2023-03-04T15:40:34;7.30;36.30
47845;DHT22;33605;48.822;8.796;2023-03-04T15:43:04;7.40;36.40
47845;DHT22;33605;48.822;8.796;2023-03-04T15:45:33;7.50;36.30
47845;DHT22;33605;48.822;8.796;2023-03-04T15:48:07;7.50;36.10
47845;DHT22;33605;48.822;8.796;2023-03-04T15:50:40;7.60;35.90
47845;DHT22;33605;48.822;8.796;2023-03-04T15:53:24;7.60;35.70
47845;DHT22;33605;48.822;8.796;2023-03-04T15:55:50;7.70;35.60
47845;DHT22;33605;48.822;8.796;2023-03-04T15:58:16;7.80;35.60
47845;DHT22;33605;48.822;8.796;2023-03-04T16:00:42;7.80;36.10
47845;DHT22;33605;48.822;8.796;2023-03-04T16:03:16;7.90;35.50
47845;DHT22;33605;48.822;8.796;2023-03-04T16:05:42;7.90;35.50
47845;DHT22;33605;48.822;8.796;2023-03-04T16:08:14;7.90;35.40
47845;DHT22;33605;48.822;8.796;2023-03-04T16:10:41;7.80;35.20
47845;DHT22;33605;48.822;8.796;2023-03-04T16:13:19;7.80;35.10
47845;DHT22;33605;48.822;8.796;2023-03-04T16:15:45;7.90;35.30
47845;DHT22;33605;48.822;8.796;2023-03-04T16:18:12;7.80;35.10
47845;DHT22;33605;48.822;8.796;2023-03-04T16:20:40;7.90;35.30
47845;DHT22;33605;48.822;8.796;2023-03-04T16:23:11;7.80;35.10
47845;DHT22;33605;48.822;8.796;2023-03-04T16:25:37;7.80;35.10
47845;DHT22;33605;48.822;8.796;2023-03-04T16:28:03;8.00;35.40
47845;DHT22;33605;48.822;8.796;2023-03-04T16:30:29;7.80;35.20
47845;DHT22;33605;48.822;8.796;2023-03-04T16:32:55;7.80;35.30
47845;DHT22;33605;48.822;8.796;2023-03-04T16:35:21;7.70;35.30
47845;DHT22;33605;48.822;8.796;2023-03-04T16:37:51;7.70;35.30
47845;DHT22;33605;48.822;8.796;2023-03-04T16:40:26;7.70;35.40
47845;DHT22;33605;48.822;8.796;2023-03-04T16:42:52;7.70;35.40
47845;DHT22;33605;48.822;8.796;2023-03-04T16:45:24;7.70;35.50
47845;DHT22;33605;48.822;8.796;2023-03-04T16:47:50;7.70;35.50
47845;DHT22;33605;48.822;8.796;2023-03-04T16:50:21;7.60;35.40
47845;DHT22;33605;48.822;8.796;2023-03-04T16:52:49;7.60;35.50
47845;DHT22;33605;48.822;8.796;2023-03-04T16:55:24;7.60;35.60
47845;DHT22;33605;48.822;8.796;2023-03-04T16:57:51;7.60;35.70
47845;DHT22;33605;48.822;8.796;2023-03-04T17:00:18;7.60;35.70
47845;DHT22;33605;48.822;8.796;2023-03-04T17:02:52;7.60;35.70
47845;DHT22;33605;48.822;8.796;2023-03-04T17:05:20;7.60;35.70
47845;DHT22;33605;48.822;8.796;2023-03-04T17:07:46;7.60;35.70
47845;DHT22;33605;48.822;8.796;2023-03-04T17:10:13;7.50;35.70
47845;DHT22;33605;48.822;8.796;2023-03-04T17:12:39;7.60;35.80
47845;DHT22;33605;48.822;8.796;2023-03-04T17:15:05;7.50;35.70
47845;DHT22;33605;48.822;8.796;2023-03-04T17:17:31;7.50;35.70
47845;DHT22;33605;48.822;8.796;2023-03-04T17:19:57;7.50;35.70
47845;DHT22;33605;48.822;8.796;2023-03-04T17:22:23;7.50;35.80
47845;DHT22;33605;48.822;8.796;2023-03-04T17:24:49;7.50;35.90
47845;DHT22;33605;48.822;8.796;2023-03-04T17:27:15;7.40;35.80
47845;DHT22;33605;48.822;8.796;2023-03-04T17:29:40;7.40;35.90
47845;DHT22;33605;48.822;8.796;2023-03-04T17:32:06;7.40;36.00
47845;DHT22;33605;48.822;8.796;2023-03-04T17:34:31;7.40;36.10
47845;DHT22;33605;48.822;8.796;2023-03-04T17:36:58;7.30;36.50
47845;DHT22;33605;48.822;8.796;2023-03-04T17:39:24;7.30;35.90
47845;DHT22;33605;48.822;8.796;2023-03-04T17:41:51;7.30;36.00
47845;DHT22;33605;48.822;8.796;2023-03-04T17:44:17;7.30;36.00
47845;DHT22;33605;48.822;8.796;2023-03-04T17:46:43;7.30;36.10
47845;DHT22;33605;48.822;8.796;2023-03-04T17:49:12;7.30;36.10